Portada
METAR-TAF:

METAR-TAF

Aeroports :

Huế, Vietnam

latitud: 16-24N, longitud: 107-41E, altitud: 17 m

METAR: manca

Hora: 19:07 (12:07 UTC)

Pronòstic

L'informe es va fer fa 1 hora i 7 minuts, a les 11:00 UTC
Pronòstic vàlid del 09 a les 12 UTC al 10 a les 12 UTC
Vent 4 kt del Sud/Sud-Oest
Visibilitat: 7000 m
Escasses núvols a una alçada de 1700 ft
Evolucionant progressivament
l' 09 a les 18 UTC al 09 a les 19 UTC
Visibilitat: 4000 m
boirina
Evolucionant progressivament
l' 10 a les 00 UTC al 10 a les 01 UTC
Visibilitat: 6000 m
Evolucionant progressivament
l' 10 a les 04 UTC al 10 a les 05 UTC
Vent 10 kt del Nord-Est
Temporalment
l' 10 a les 09 UTC al 10 a les 12 UTC
Visibilitat: 4000 m
Núvols disperses a una alçada de 1300 ft
Cel ennuvolat a una alçada de 5000 ft
pluja

TAF: VVPB 091100Z 0912/1012 21004KT 7000 FEW017 BECMG 0918/0919 4000 BR BECMG 1000/1001 6000 NSW BECMG 1004/1005 05010KT TEMPO 1009/1012 4000 RA SCT013 BKN050

Observacions i pronòstics meteorològics de més de 4000 aeroports (METAR i TAF).

Les estacions disponibles són els punts grocs i vermells al mapa.

Posi el ratolí al punt desitjat per veure el nom de l'estació.

Feu clic per veure les observacions i els pronòstics meteorològics.

Per canviar el mapa: feu clic els botons verds amb una creu de color negre per apropar; al botó verd amb un guió per allunyar la imatge; o en les fletxes verdes per a mapes adjacents.


METAR-TAF: